sensor_id;sensor_type;location;lat;lon;timestamp;P1;durP1;ratioP1;P2;durP2;ratioP2
16579;SDS011;8402;51.466;6.806;2023-12-28T00:01:25;5.03;;;1.87;;
16579;SDS011;8402;51.466;6.806;2023-12-28T00:03:55;3.37;;;2.00;;
16579;SDS011;8402;51.466;6.806;2023-12-28T00:06:25;5.87;;;1.93;;
16579;SDS011;8402;51.466;6.806;2023-12-28T00:08:57;4.20;;;1.63;;
16579;SDS011;8402;51.466;6.806;2023-12-28T00:11:37;2.70;;;1.70;;
16579;SDS011;8402;51.466;6.806;2023-12-28T00:14:07;3.53;;;2.00;;
16579;SDS011;8402;51.466;6.806;2023-12-28T00:16:37;3.23;;;1.87;;
16579;SDS011;8402;51.466;6.806;2023-12-28T00:19:07;3.43;;;2.10;;
16579;SDS011;8402;51.466;6.806;2023-12-28T00:21:37;2.00;;;1.43;;
16579;SDS011;8402;51.466;6.806;2023-12-28T00:24:09;4.07;;;1.70;;
16579;SDS011;8402;51.466;6.806;2023-12-28T00:26:39;4.90;;;2.10;;
16579;SDS011;8402;51.466;6.806;2023-12-28T00:29:09;4.63;;;2.03;;
16579;SDS011;8402;51.466;6.806;2023-12-28T00:31:39;2.43;;;1.70;;
16579;SDS011;8402;51.466;6.806;2023-12-28T00:34:09;2.57;;;1.90;;
16579;SDS011;8402;51.466;6.806;2023-12-28T00:36:41;4.50;;;2.60;;
16579;SDS011;8402;51.466;6.806;2023-12-28T00:39:14;6.03;;;2.20;;
16579;SDS011;8402;51.466;6.806;2023-12-28T00:41:44;4.53;;;1.83;;
16579;SDS011;8402;51.466;6.806;2023-12-28T00:44:14;2.97;;;1.97;;
16579;SDS011;8402;51.466;6.806;2023-12-28T00:46:45;3.37;;;2.00;;
16579;SDS011;8402;51.466;6.806;2023-12-28T00:49:15;3.77;;;1.90;;
16579;SDS011;8402;51.466;6.806;2023-12-28T00:51:45;4.00;;;1.93;;
16579;SDS011;8402;51.466;6.806;2023-12-28T00:54:18;4.87;;;2.30;;
16579;SDS011;8402;51.466;6.806;2023-12-28T00:56:48;3.87;;;1.80;;
16579;SDS011;8402;51.466;6.806;2023-12-28T00:59:18;4.83;;;2.83;;
16579;SDS011;8402;51.466;6.806;2023-12-28T01:01:48;7.17;;;2.50;;
16579;SDS011;8402;51.466;6.806;2023-12-28T01:04:18;9.87;;;3.13;;
16579;SDS011;8402;51.466;6.806;2023-12-28T01:06:49;5.03;;;2.80;;
16579;SDS011;8402;51.466;6.806;2023-12-28T01:09:22;5.60;;;3.03;;
16579;SDS011;8402;51.466;6.806;2023-12-28T01:11:52;4.20;;;2.30;;
16579;SDS011;8402;51.466;6.806;2023-12-28T01:14:22;7.43;;;2.03;;
16579;SDS011;8402;51.466;6.806;2023-12-28T01:16:52;3.77;;;1.60;;
16579;SDS011;8402;51.466;6.806;2023-12-28T01:19:22;3.83;;;2.07;;
16579;SDS011;8402;51.466;6.806;2023-12-28T01:21:52;5.23;;;2.00;;
16579;SDS011;8402;51.466;6.806;2023-12-28T01:24:25;4.93;;;2.20;;
16579;SDS011;8402;51.466;6.806;2023-12-28T01:26:55;4.77;;;2.37;;
16579;SDS011;8402;51.466;6.806;2023-12-28T01:29:25;6.90;;;2.20;;
16579;SDS011;8402;51.466;6.806;2023-12-28T01:31:55;4.13;;;1.97;;
16579;SDS011;8402;51.466;6.806;2023-12-28T01:34:25;6.83;;;1.90;;
16579;SDS011;8402;51.466;6.806;2023-12-28T01:36:55;3.67;;;2.03;;
16579;SDS011;8402;51.466;6.806;2023-12-28T01:39:27;3.60;;;1.77;;
16579;SDS011;8402;51.466;6.806;2023-12-28T01:41:59;4.77;;;2.07;;
16579;SDS011;8402;51.466;6.806;2023-12-28T01:44:30;3.03;;;1.57;;
16579;SDS011;8402;51.466;6.806;2023-12-28T01:47:00;5.07;;;2.00;;
16579;SDS011;8402;51.466;6.806;2023-12-28T01:49:30;4.10;;;1.90;;
16579;SDS011;8402;51.466;6.806;2023-12-28T01:52:00;5.70;;;2.00;;
16579;SDS011;8402;51.466;6.806;2023-12-28T01:54:34;3.97;;;2.00;;
16579;SDS011;8402;51.466;6.806;2023-12-28T01:57:06;2.43;;;1.40;;
16579;SDS011;8402;51.466;6.806;2023-12-28T01:59:37;2.07;;;1.33;;
16579;SDS011;8402;51.466;6.806;2023-12-28T02:02:07;3.33;;;1.70;;
16579;SDS011;8402;51.466;6.806;2023-12-28T02:04:38;3.43;;;1.90;;
16579;SDS011;8402;51.466;6.806;2023-12-28T02:07:08;2.77;;;1.80;;
16579;SDS011;8402;51.466;6.806;2023-12-28T02:09:41;3.00;;;1.73;;
16579;SDS011;8402;51.466;6.806;2023-12-28T02:12:11;3.20;;;1.80;;
16579;SDS011;8402;51.466;6.806;2023-12-28T02:14:41;5.33;;;1.90;;
16579;SDS011;8402;51.466;6.806;2023-12-28T02:17:14;2.47;;;1.60;;
16579;SDS011;8402;51.466;6.806;2023-12-28T02:19:50;3.87;;;1.90;;
16579;SDS011;8402;51.466;6.806;2023-12-28T02:22:23;5.40;;;1.83;;
16579;SDS011;8402;51.466;6.806;2023-12-28T02:25:05;2.57;;;1.80;;
16579;SDS011;8402;51.466;6.806;2023-12-28T02:27:36;3.40;;;1.80;;
16579;SDS011;8402;51.466;6.806;2023-12-28T02:30:08;2.30;;;1.50;;
16579;SDS011;8402;51.466;6.806;2023-12-28T02:32:43;2.50;;;1.57;;
16579;SDS011;8402;51.466;6.806;2023-12-28T02:35:23;2.50;;;1.70;;
16579;SDS011;8402;51.466;6.806;2023-12-28T02:37:56;3.43;;;1.60;;
16579;SDS011;8402;51.466;6.806;2023-12-28T02:40:35;3.17;;;1.70;;
16579;SDS011;8402;51.466;6.806;2023-12-28T02:43:07;2.73;;;1.77;;
16579;SDS011;8402;51.466;6.806;2023-12-28T02:45:38;3.63;;;1.90;;
16579;SDS011;8402;51.466;6.806;2023-12-28T02:48:09;3.93;;;1.83;;
16579;SDS011;8402;51.466;6.806;2023-12-28T02:50:39;4.37;;;1.90;;
16579;SDS011;8402;51.466;6.806;2023-12-28T02:53:09;6.13;;;2.10;;
16579;SDS011;8402;51.466;6.806;2023-12-28T02:55:42;3.43;;;2.03;;
16579;SDS011;8402;51.466;6.806;2023-12-28T02:58:12;3.43;;;2.10;;
16579;SDS011;8402;51.466;6.806;2023-12-28T03:00:41;4.90;;;2.20;;
16579;SDS011;8402;51.466;6.806;2023-12-28T03:03:15;6.27;;;1.80;;
16579;SDS011;8402;51.466;6.806;2023-12-28T03:05:46;3.20;;;1.83;;
16579;SDS011;8402;51.466;6.806;2023-12-28T03:08:16;4.17;;;2.00;;
16579;SDS011;8402;51.466;6.806;2023-12-28T03:10:48;3.57;;;2.00;;
16579;SDS011;8402;51.466;6.806;2023-12-28T03:13:19;5.87;;;1.70;;
16579;SDS011;8402;51.466;6.806;2023-12-28T03:15:49;4.67;;;1.80;;
16579;SDS011;8402;51.466;6.806;2023-12-28T03:18:20;4.93;;;2.03;;
16579;SDS011;8402;51.466;6.806;2023-12-28T03:20:50;5.03;;;2.10;;
16579;SDS011;8402;51.466;6.806;2023-12-28T03:23:20;4.90;;;2.30;;
16579;SDS011;8402;51.466;6.806;2023-12-28T03:25:53;2.60;;;1.80;;
16579;SDS011;8402;51.466;6.806;2023-12-28T03:28:23;3.87;;;1.80;;
16579;SDS011;8402;51.466;6.806;2023-12-28T03:30:53;4.30;;;2.03;;
16579;SDS011;8402;51.466;6.806;2023-12-28T03:33:23;3.27;;;1.67;;
16579;SDS011;8402;51.466;6.806;2023-12-28T03:35:56;3.23;;;2.03;;
16579;SDS011;8402;51.466;6.806;2023-12-28T03:38:27;4.07;;;1.97;;
16579;SDS011;8402;51.466;6.806;2023-12-28T03:41:00;7.43;;;2.30;;
16579;SDS011;8402;51.466;6.806;2023-12-28T03:43:29;4.07;;;2.07;;
16579;SDS011;8402;51.466;6.806;2023-12-28T03:45:59;3.33;;;1.80;;
16579;SDS011;8402;51.466;6.806;2023-12-28T03:48:31;3.10;;;2.10;;
16579;SDS011;8402;51.466;6.806;2023-12-28T03:51:01;3.00;;;2.20;;
16579;SDS011;8402;51.466;6.806;2023-12-28T03:53:33;3.33;;;2.17;;
16579;SDS011;8402;51.466;6.806;2023-12-28T03:56:17;4.43;;;1.80;;
16579;SDS011;8402;51.466;6.806;2023-12-28T03:58:47;4.20;;;2.13;;
16579;SDS011;8402;51.466;6.806;2023-12-28T04:01:18;4.03;;;2.00;;
16579;SDS011;8402;51.466;6.806;2023-12-28T04:03:48;3.17;;;1.90;;
16579;SDS011;8402;51.466;6.806;2023-12-28T04:06:19;6.00;;;2.23;;
16579;SDS011;8402;51.466;6.806;2023-12-28T04:08:49;3.40;;;2.10;;
16579;SDS011;8402;51.466;6.806;2023-12-28T04:11:22;5.50;;;2.13;;
16579;SDS011;8402;51.466;6.806;2023-12-28T04:13:52;4.43;;;1.90;;
16579;SDS011;8402;51.466;6.806;2023-12-28T04:16:22;3.30;;;2.40;;
16579;SDS011;8402;51.466;6.806;2023-12-28T04:18:52;3.80;;;2.10;;
16579;SDS011;8402;51.466;6.806;2023-12-28T04:21:21;4.60;;;2.10;;
16579;SDS011;8402;51.466;6.806;2023-12-28T04:23:52;5.50;;;2.23;;
16579;SDS011;8402;51.466;6.806;2023-12-28T04:26:24;4.07;;;2.13;;
16579;SDS011;8402;51.466;6.806;2023-12-28T04:28:54;3.43;;;2.23;;
16579;SDS011;8402;51.466;6.806;2023-12-28T04:31:24;3.70;;;1.90;;
16579;SDS011;8402;51.466;6.806;2023-12-28T04:33:54;2.97;;;1.93;;
16579;SDS011;8402;51.466;6.806;2023-12-28T04:36:24;6.13;;;1.70;;
16579;SDS011;8402;51.466;6.806;2023-12-28T04:38:54;4.50;;;1.70;;
16579;SDS011;8402;51.466;6.806;2023-12-28T04:41:27;2.63;;;1.87;;
16579;SDS011;8402;51.466;6.806;2023-12-28T04:43:57;4.83;;;2.30;;
16579;SDS011;8402;51.466;6.806;2023-12-28T04:46:28;5.00;;;1.90;;
16579;SDS011;8402;51.466;6.806;2023-12-28T04:49:02;4.67;;;2.00;;
16579;SDS011;8402;51.466;6.806;2023-12-28T04:51:32;4.23;;;1.90;;
16579;SDS011;8402;51.466;6.806;2023-12-28T04:54:02;5.07;;;2.00;;
16579;SDS011;8402;51.466;6.806;2023-12-28T04:56:35;5.73;;;1.90;;
16579;SDS011;8402;51.466;6.806;2023-12-28T04:59:05;5.37;;;2.20;;
16579;SDS011;8402;51.466;6.806;2023-12-28T05:01:40;3.50;;;1.90;;
16579;SDS011;8402;51.466;6.806;2023-12-28T05:04:10;2.30;;;1.50;;
16579;SDS011;8402;51.466;6.806;2023-12-28T05:06:43;3.73;;;1.90;;
16579;SDS011;8402;51.466;6.806;2023-12-28T05:09:13;4.50;;;2.13;;
16579;SDS011;8402;51.466;6.806;2023-12-28T05:11:46;2.47;;;1.63;;
16579;SDS011;8402;51.466;6.806;2023-12-28T05:14:16;3.20;;;1.83;;
16579;SDS011;8402;51.466;6.806;2023-12-28T05:16:46;6.47;;;1.73;;
16579;SDS011;8402;51.466;6.806;2023-12-28T05:19:24;3.63;;;1.93;;
16579;SDS011;8402;51.466;6.806;2023-12-28T05:21:58;3.50;;;1.77;;
16579;SDS011;8402;51.466;6.806;2023-12-28T05:24:36;3.10;;;1.97;;
16579;SDS011;8402;51.466;6.806;2023-12-28T05:27:09;6.20;;;2.10;;
16579;SDS011;8402;51.466;6.806;2023-12-28T05:29:39;3.03;;;1.90;;
16579;SDS011;8402;51.466;6.806;2023-12-28T05:32:08;4.07;;;2.03;;
16579;SDS011;8402;51.466;6.806;2023-12-28T05:34:38;8.53;;;2.37;;
16579;SDS011;8402;51.466;6.806;2023-12-28T05:37:08;4.77;;;2.17;;
16579;SDS011;8402;51.466;6.806;2023-12-28T05:39:38;7.43;;;2.07;;
16579;SDS011;8402;51.466;6.806;2023-12-28T05:42:11;5.53;;;1.67;;
16579;SDS011;8402;51.466;6.806;2023-12-28T05:44:41;7.33;;;2.30;;
16579;SDS011;8402;51.466;6.806;2023-12-28T05:47:11;4.00;;;1.90;;
16579;SDS011;8402;51.466;6.806;2023-12-28T05:49:41;5.40;;;1.80;;
16579;SDS011;8402;51.466;6.806;2023-12-28T05:52:11;4.67;;;2.20;;
16579;SDS011;8402;51.466;6.806;2023-12-28T05:54:45;3.03;;;1.80;;
16579;SDS011;8402;51.466;6.806;2023-12-28T05:57:21;5.00;;;1.80;;
16579;SDS011;8402;51.466;6.806;2023-12-28T05:59:53;6.43;;;1.90;;
16579;SDS011;8402;51.466;6.806;2023-12-28T06:02:23;7.40;;;2.47;;
16579;SDS011;8402;51.466;6.806;2023-12-28T06:04:53;7.30;;;2.03;;
16579;SDS011;8402;51.466;6.806;2023-12-28T06:07:23;7.70;;;1.97;;
16579;SDS011;8402;51.466;6.806;2023-12-28T06:09:53;8.27;;;1.93;;
16579;SDS011;8402;51.466;6.806;2023-12-28T06:12:25;4.93;;;2.33;;
16579;SDS011;8402;51.466;6.806;2023-12-28T06:14:55;5.87;;;2.20;;
16579;SDS011;8402;51.466;6.806;2023-12-28T06:17:26;4.13;;;1.80;;
16579;SDS011;8402;51.466;6.806;2023-12-28T06:20:00;4.20;;;1.80;;
16579;SDS011;8402;51.466;6.806;2023-12-28T06:22:30;6.80;;;2.07;;
16579;SDS011;8402;51.466;6.806;2023-12-28T06:25:00;4.77;;;1.77;;
16579;SDS011;8402;51.466;6.806;2023-12-28T06:27:33;4.07;;;1.57;;
16579;SDS011;8402;51.466;6.806;2023-12-28T06:30:04;3.37;;;1.80;;
16579;SDS011;8402;51.466;6.806;2023-12-28T06:32:35;4.50;;;2.07;;
16579;SDS011;8402;51.466;6.806;2023-12-28T06:35:06;6.20;;;1.93;;
16579;SDS011;8402;51.466;6.806;2023-12-28T06:37:36;4.97;;;2.20;;
16579;SDS011;8402;51.466;6.806;2023-12-28T06:40:07;7.00;;;1.90;;
16579;SDS011;8402;51.466;6.806;2023-12-28T06:42:40;5.87;;;2.00;;
16579;SDS011;8402;51.466;6.806;2023-12-28T06:45:10;4.50;;;1.73;;
16579;SDS011;8402;51.466;6.806;2023-12-28T06:47:45;4.03;;;1.63;;
16579;SDS011;8402;51.466;6.806;2023-12-28T06:50:15;5.43;;;1.67;;
16579;SDS011;8402;51.466;6.806;2023-12-28T06:52:49;4.33;;;1.50;;
16579;SDS011;8402;51.466;6.806;2023-12-28T06:55:19;5.27;;;1.63;;
16579;SDS011;8402;51.466;6.806;2023-12-28T06:57:52;4.43;;;1.57;;
16579;SDS011;8402;51.466;6.806;2023-12-28T07:00:22;5.60;;;1.90;;
16579;SDS011;8402;51.466;6.806;2023-12-28T07:02:52;5.30;;;2.03;;
16579;SDS011;8402;51.466;6.806;2023-12-28T07:05:22;3.97;;;1.57;;
16579;SDS011;8402;51.466;6.806;2023-12-28T07:07:52;4.53;;;1.90;;
16579;SDS011;8402;51.466;6.806;2023-12-28T07:10:23;3.87;;;1.77;;
16579;SDS011;8402;51.466;6.806;2023-12-28T07:12:55;4.73;;;1.60;;
16579;SDS011;8402;51.466;6.806;2023-12-28T07:15:25;5.47;;;1.80;;
16579;SDS011;8402;51.466;6.806;2023-12-28T07:17:56;6.07;;;2.20;;
16579;SDS011;8402;51.466;6.806;2023-12-28T07:20:27;4.50;;;1.60;;
16579;SDS011;8402;51.466;6.806;2023-12-28T07:23:05;7.17;;;1.73;;
16579;SDS011;8402;51.466;6.806;2023-12-28T07:25:39;9.03;;;2.03;;
16579;SDS011;8402;51.466;6.806;2023-12-28T07:28:21;8.73;;;2.17;;
16579;SDS011;8402;51.466;6.806;2023-12-28T07:30:53;8.30;;;1.90;;
16579;SDS011;8402;51.466;6.806;2023-12-28T07:33:23;9.47;;;1.90;;
16579;SDS011;8402;51.466;6.806;2023-12-28T07:35:53;5.30;;;2.03;;
16579;SDS011;8402;51.466;6.806;2023-12-28T07:38:26;8.23;;;2.10;;
16579;SDS011;8402;51.466;6.806;2023-12-28T07:40:56;9.80;;;2.47;;
16579;SDS011;8402;51.466;6.806;2023-12-28T07:43:31;10.97;;;2.63;;
16579;SDS011;8402;51.466;6.806;2023-12-28T07:46:05;11.23;;;2.23;;
16579;SDS011;8402;51.466;6.806;2023-12-28T07:48:38;5.83;;;2.27;;
16579;SDS011;8402;51.466;6.806;2023-12-28T07:51:08;4.87;;;2.20;;
16579;SDS011;8402;51.466;6.806;2023-12-28T07:53:38;9.83;;;2.60;;
16579;SDS011;8402;51.466;6.806;2023-12-28T07:56:08;8.43;;;2.23;;
16579;SDS011;8402;51.466;6.806;2023-12-28T07:58:41;13.50;;;2.50;;
16579;SDS011;8402;51.466;6.806;2023-12-28T08:01:14;11.40;;;3.10;;
16579;SDS011;8402;51.466;6.806;2023-12-28T08:03:46;11.90;;;2.83;;
16579;SDS011;8402;51.466;6.806;2023-12-28T08:06:18;6.73;;;2.47;;
16579;SDS011;8402;51.466;6.806;2023-12-28T08:08:48;10.33;;;2.57;;
16579;SDS011;8402;51.466;6.806;2023-12-28T08:11:20;9.03;;;2.00;;
16579;SDS011;8402;51.466;6.806;2023-12-28T08:13:56;7.70;;;2.57;;
16579;SDS011;8402;51.466;6.806;2023-12-28T08:16:26;7.03;;;2.20;;
16579;SDS011;8402;51.466;6.806;2023-12-28T08:18:55;9.57;;;2.70;;
16579;SDS011;8402;51.466;6.806;2023-12-28T08:21:26;5.03;;;1.90;;
16579;SDS011;8402;51.466;6.806;2023-12-28T08:23:56;10.27;;;2.10;;
16579;SDS011;8402;51.466;6.806;2023-12-28T08:26:26;6.80;;;2.40;;
16579;SDS011;8402;51.466;6.806;2023-12-28T08:28:59;10.80;;;2.83;;
16579;SDS011;8402;51.466;6.806;2023-12-28T08:31:29;13.03;;;2.77;;
16579;SDS011;8402;51.466;6.806;2023-12-28T08:33:59;8.77;;;3.00;;
16579;SDS011;8402;51.466;6.806;2023-12-28T08:36:29;12.83;;;3.00;;
16579;SDS011;8402;51.466;6.806;2023-12-28T08:38:59;10.37;;;2.80;;
16579;SDS011;8402;51.466;6.806;2023-12-28T08:41:30;11.33;;;2.67;;
16579;SDS011;8402;51.466;6.806;2023-12-28T08:44:03;10.70;;;2.53;;
16579;SDS011;8402;51.466;6.806;2023-12-28T08:46:33;8.53;;;2.50;;
16579;SDS011;8402;51.466;6.806;2023-12-28T08:49:03;7.53;;;2.90;;
16579;SDS011;8402;51.466;6.806;2023-12-28T08:51:33;20.10;;;3.70;;
16579;SDS011;8402;51.466;6.806;2023-12-28T08:54:07;9.87;;;3.17;;
16579;SDS011;8402;51.466;6.806;2023-12-28T08:56:37;7.30;;;3.03;;
16579;SDS011;8402;51.466;6.806;2023-12-28T08:59:09;10.77;;;3.10;;
16579;SDS011;8402;51.466;6.806;2023-12-28T09:01:39;8.87;;;2.77;;
16579;SDS011;8402;51.466;6.806;2023-12-28T09:04:10;10.73;;;3.40;;
16579;SDS011;8402;51.466;6.806;2023-12-28T09:06:40;13.10;;;3.23;;
16579;SDS011;8402;51.466;6.806;2023-12-28T09:09:10;16.60;;;2.90;;
16579;SDS011;8402;51.466;6.806;2023-12-28T09:11:40;4.10;;;1.87;;
16579;SDS011;8402;51.466;6.806;2023-12-28T09:14:13;5.20;;;2.03;;
16579;SDS011;8402;51.466;6.806;2023-12-28T09:16:43;9.63;;;2.40;;
16579;SDS011;8402;51.466;6.806;2023-12-28T09:19:15;9.77;;;2.50;;
16579;SDS011;8402;51.466;6.806;2023-12-28T09:21:44;18.90;;;2.70;;
16579;SDS011;8402;51.466;6.806;2023-12-28T09:24:14;9.40;;;2.57;;
16579;SDS011;8402;51.466;6.806;2023-12-28T09:26:45;6.47;;;1.83;;
16579;SDS011;8402;51.466;6.806;2023-12-28T09:29:17;7.03;;;2.10;;
16579;SDS011;8402;51.466;6.806;2023-12-28T09:31:47;14.53;;;2.13;;
16579;SDS011;8402;51.466;6.806;2023-12-28T09:34:17;11.80;;;2.30;;
16579;SDS011;8402;51.466;6.806;2023-12-28T09:36:47;7.47;;;1.70;;
16579;SDS011;8402;51.466;6.806;2023-12-28T09:39:18;10.33;;;2.23;;
16579;SDS011;8402;51.466;6.806;2023-12-28T09:41:48;8.73;;;2.30;;
16579;SDS011;8402;51.466;6.806;2023-12-28T09:44:27;9.00;;;2.00;;
16579;SDS011;8402;51.466;6.806;2023-12-28T09:47:01;9.73;;;2.47;;
16579;SDS011;8402;51.466;6.806;2023-12-28T09:49:33;7.77;;;1.90;;
16579;SDS011;8402;51.466;6.806;2023-12-28T09:52:06;11.83;;;2.20;;
16579;SDS011;8402;51.466;6.806;2023-12-28T09:54:39;7.93;;;1.90;;
16579;SDS011;8402;51.466;6.806;2023-12-28T09:57:09;10.17;;;2.00;;
16579;SDS011;8402;51.466;6.806;2023-12-28T09:59:43;10.27;;;2.00;;
16579;SDS011;8402;51.466;6.806;2023-12-28T10:02:14;6.33;;;2.37;;
16579;SDS011;8402;51.466;6.806;2023-12-28T10:04:45;16.03;;;2.53;;
16579;SDS011;8402;51.466;6.806;2023-12-28T10:07:15;6.97;;;1.63;;
16579;SDS011;8402;51.466;6.806;2023-12-28T10:09:45;11.67;;;2.10;;
16579;SDS011;8402;51.466;6.806;2023-12-28T10:12:15;7.30;;;1.50;;
16579;SDS011;8402;51.466;6.806;2023-12-28T10:14:48;7.43;;;1.90;;
16579;SDS011;8402;51.466;6.806;2023-12-28T10:17:19;8.53;;;1.93;;
16579;SDS011;8402;51.466;6.806;2023-12-28T10:19:49;11.50;;;2.47;;
16579;SDS011;8402;51.466;6.806;2023-12-28T10:22:19;5.73;;;1.63;;
16579;SDS011;8402;51.466;6.806;2023-12-28T10:24:50;6.80;;;1.90;;
16579;SDS011;8402;51.466;6.806;2023-12-28T10:27:20;6.93;;;2.03;;
16579;SDS011;8402;51.466;6.806;2023-12-28T10:29:55;10.60;;;2.13;;
16579;SDS011;8402;51.466;6.806;2023-12-28T10:32:26;7.33;;;1.57;;
16579;SDS011;8402;51.466;6.806;2023-12-28T10:34:56;9.27;;;1.83;;
16579;SDS011;8402;51.466;6.806;2023-12-28T10:37:27;7.40;;;1.83;;
16579;SDS011;8402;51.466;6.806;2023-12-28T10:40:00;12.83;;;1.83;;
16579;SDS011;8402;51.466;6.806;2023-12-28T10:42:37;6.57;;;1.80;;
16579;SDS011;8402;51.466;6.806;2023-12-28T10:45:15;5.70;;;1.33;;
16579;SDS011;8402;51.466;6.806;2023-12-28T10:47:48;9.17;;;1.63;;
16579;SDS011;8402;51.466;6.806;2023-12-28T10:50:36;10.33;;;1.50;;
16579;SDS011;8402;51.466;6.806;2023-12-28T10:53:19;6.20;;;1.53;;
16579;SDS011;8402;51.466;6.806;2023-12-28T10:56:01;9.87;;;1.77;;
16579;SDS011;8402;51.466;6.806;2023-12-28T10:58:40;10.30;;;1.83;;
16579;SDS011;8402;51.466;6.806;2023-12-28T11:01:21;7.27;;;2.30;;
16579;SDS011;8402;51.466;6.806;2023-12-28T11:04:01;6.77;;;1.50;;
16579;SDS011;8402;51.466;6.806;2023-12-28T11:06:37;9.37;;;1.90;;
16579;SDS011;8402;51.466;6.806;2023-12-28T11:09:09;7.37;;;1.50;;
16579;SDS011;8402;51.466;6.806;2023-12-28T11:11:42;8.67;;;1.60;;
16579;SDS011;8402;51.466;6.806;2023-12-28T11:14:13;9.20;;;2.07;;
16579;SDS011;8402;51.466;6.806;2023-12-28T11:16:51;10.57;;;1.97;;
16579;SDS011;8402;51.466;6.806;2023-12-28T11:19:22;7.77;;;1.70;;
16579;SDS011;8402;51.466;6.806;2023-12-28T11:21:53;7.40;;;1.40;;
16579;SDS011;8402;51.466;6.806;2023-12-28T11:24:24;8.67;;;1.50;;
16579;SDS011;8402;51.466;6.806;2023-12-28T11:26:54;6.77;;;1.70;;
16579;SDS011;8402;51.466;6.806;2023-12-28T11:29:24;11.40;;;1.73;;
16579;SDS011;8402;51.466;6.806;2023-12-28T11:31:58;6.97;;;1.13;;
16579;SDS011;8402;51.466;6.806;2023-12-28T11:34:29;8.80;;;1.70;;
16579;SDS011;8402;51.466;6.806;2023-12-28T11:37:02;7.93;;;1.53;;
16579;SDS011;8402;51.466;6.806;2023-12-28T11:39:37;7.70;;;1.50;;
16579;SDS011;8402;51.466;6.806;2023-12-28T11:42:13;7.60;;;1.87;;
16579;SDS011;8402;51.466;6.806;2023-12-28T11:44:53;6.30;;;1.50;;
16579;SDS011;8402;51.466;6.806;2023-12-28T11:47:28;11.17;;;2.27;;
16579;SDS011;8402;51.466;6.806;2023-12-28T11:50:05;8.40;;;1.73;;
16579;SDS011;8402;51.466;6.806;2023-12-28T11:52:36;6.87;;;1.57;;
16579;SDS011;8402;51.466;6.806;2023-12-28T11:55:08;7.30;;;1.77;;
16579;SDS011;8402;51.466;6.806;2023-12-28T11:57:38;10.77;;;1.60;;
16579;SDS011;8402;51.466;6.806;2023-12-28T12:00:09;7.20;;;1.67;;
16579;SDS011;8402;51.466;6.806;2023-12-28T12:02:43;6.50;;;1.63;;
16579;SDS011;8402;51.466;6.806;2023-12-28T12:05:19;8.83;;;1.33;;
16579;SDS011;8402;51.466;6.806;2023-12-28T12:07:51;8.20;;;1.47;;
16579;SDS011;8402;51.466;6.806;2023-12-28T12:10:21;9.97;;;2.10;;
16579;SDS011;8402;51.466;6.806;2023-12-28T12:12:51;7.20;;;1.80;;
16579;SDS011;8402;51.466;6.806;2023-12-28T12:15:22;7.00;;;1.47;;
16579;SDS011;8402;51.466;6.806;2023-12-28T12:17:55;7.77;;;1.80;;
16579;SDS011;8402;51.466;6.806;2023-12-28T12:20:26;9.23;;;1.37;;
16579;SDS011;8402;51.466;6.806;2023-12-28T12:23:00;7.50;;;1.80;;
16579;SDS011;8402;51.466;6.806;2023-12-28T12:25:32;11.93;;;2.23;;
16579;SDS011;8402;51.466;6.806;2023-12-28T12:28:02;8.30;;;1.53;;
16579;SDS011;8402;51.466;6.806;2023-12-28T12:30:32;7.33;;;1.77;;
16579;SDS011;8402;51.466;6.806;2023-12-28T12:33:05;14.57;;;2.40;;
16579;SDS011;8402;51.466;6.806;2023-12-28T12:35:38;8.77;;;1.70;;
16579;SDS011;8402;51.466;6.806;2023-12-28T12:38:11;12.00;;;2.43;;
16579;SDS011;8402;51.466;6.806;2023-12-28T12:40:41;7.70;;;1.50;;
16579;SDS011;8402;51.466;6.806;2023-12-28T12:43:11;12.33;;;2.20;;
16579;SDS011;8402;51.466;6.806;2023-12-28T12:45:41;8.60;;;1.60;;
16579;SDS011;8402;51.466;6.806;2023-12-28T12:48:17;8.33;;;1.83;;
16579;SDS011;8402;51.466;6.806;2023-12-28T12:50:47;8.97;;;1.43;;
16579;SDS011;8402;51.466;6.806;2023-12-28T12:53:19;9.00;;;2.00;;
16579;SDS011;8402;51.466;6.806;2023-12-28T12:55:49;8.17;;;1.90;;
16579;SDS011;8402;51.466;6.806;2023-12-28T12:58:24;4.97;;;1.10;;
16579;SDS011;8402;51.466;6.806;2023-12-28T13:01:01;10.13;;;1.80;;
16579;SDS011;8402;51.466;6.806;2023-12-28T13:03:33;10.40;;;1.80;;
16579;SDS011;8402;51.466;6.806;2023-12-28T13:06:05;8.83;;;2.00;;
16579;SDS011;8402;51.466;6.806;2023-12-28T13:08:36;8.60;;;1.93;;
16579;SDS011;8402;51.466;6.806;2023-12-28T13:11:06;8.50;;;1.53;;
16579;SDS011;8402;51.466;6.806;2023-12-28T13:13:37;9.37;;;1.50;;
16579;SDS011;8402;51.466;6.806;2023-12-28T13:16:07;15.10;;;1.83;;
16579;SDS011;8402;51.466;6.806;2023-12-28T13:18:42;10.60;;;1.90;;
16579;SDS011;8402;51.466;6.806;2023-12-28T13:21:12;7.10;;;1.70;;
16579;SDS011;8402;51.466;6.806;2023-12-28T13:23:42;8.37;;;1.73;;
16579;SDS011;8402;51.466;6.806;2023-12-28T13:26:13;8.27;;;1.83;;
16579;SDS011;8402;51.466;6.806;2023-12-28T13:28:45;10.10;;;1.90;;
16579;SDS011;8402;51.466;6.806;2023-12-28T13:31:15;10.07;;;2.30;;
16579;SDS011;8402;51.466;6.806;2023-12-28T13:33:48;8.07;;;1.90;;
16579;SDS011;8402;51.466;6.806;2023-12-28T13:36:18;8.53;;;1.90;;
16579;SDS011;8402;51.466;6.806;2023-12-28T13:38:48;5.33;;;1.23;;
16579;SDS011;8402;51.466;6.806;2023-12-28T13:41:18;4.67;;;1.13;;
16579;SDS011;8402;51.466;6.806;2023-12-28T13:43:48;4.87;;;1.20;;
16579;SDS011;8402;51.466;6.806;2023-12-28T13:46:18;6.47;;;1.80;;
16579;SDS011;8402;51.466;6.806;2023-12-28T13:48:51;12.77;;;1.77;;
16579;SDS011;8402;51.466;6.806;2023-12-28T13:51:21;10.60;;;1.67;;
16579;SDS011;8402;51.466;6.806;2023-12-28T13:53:51;7.03;;;1.40;;
16579;SDS011;8402;51.466;6.806;2023-12-28T13:56:22;5.83;;;1.30;;
16579;SDS011;8402;51.466;6.806;2023-12-28T13:58:53;9.20;;;1.70;;
16579;SDS011;8402;51.466;6.806;2023-12-28T14:01:23;6.90;;;1.53;;
16579;SDS011;8402;51.466;6.806;2023-12-28T14:03:55;4.83;;;1.17;;
16579;SDS011;8402;51.466;6.806;2023-12-28T14:06:26;8.27;;;1.73;;
16579;SDS011;8402;51.466;6.806;2023-12-28T14:08:56;10.23;;;2.20;;
16579;SDS011;8402;51.466;6.806;2023-12-28T14:11:26;7.57;;;1.80;;
16579;SDS011;8402;51.466;6.806;2023-12-28T14:13:56;6.83;;;1.63;;
16579;SDS011;8402;51.466;6.806;2023-12-28T14:16:27;10.23;;;1.70;;
16579;SDS011;8402;51.466;6.806;2023-12-28T14:19:01;9.63;;;1.87;;
16579;SDS011;8402;51.466;6.806;2023-12-28T14:21:34;6.80;;;1.90;;
16579;SDS011;8402;51.466;6.806;2023-12-28T14:24:08;8.47;;;2.50;;
16579;SDS011;8402;51.466;6.806;2023-12-28T14:26:40;6.27;;;2.07;;
16579;SDS011;8402;51.466;6.806;2023-12-28T14:29:11;13.77;;;2.70;;
16579;SDS011;8402;51.466;6.806;2023-12-28T14:31:42;8.47;;;2.40;;
16579;SDS011;8402;51.466;6.806;2023-12-28T14:34:16;5.37;;;2.03;;
16579;SDS011;8402;51.466;6.806;2023-12-28T14:36:47;11.83;;;2.13;;
16579;SDS011;8402;51.466;6.806;2023-12-28T14:39:19;10.03;;;2.33;;
16579;SDS011;8402;51.466;6.806;2023-12-28T14:41:49;7.53;;;2.00;;
16579;SDS011;8402;51.466;6.806;2023-12-28T14:44:19;10.60;;;2.37;;
16579;SDS011;8402;51.466;6.806;2023-12-28T14:46:49;12.23;;;2.37;;
16579;SDS011;8402;51.466;6.806;2023-12-28T14:49:28;7.30;;;2.17;;
16579;SDS011;8402;51.466;6.806;2023-12-28T14:51:58;9.00;;;2.60;;
16579;SDS011;8402;51.466;6.806;2023-12-28T14:54:28;12.20;;;2.37;;
16579;SDS011;8402;51.466;6.806;2023-12-28T14:56:58;7.10;;;2.00;;
16579;SDS011;8402;51.466;6.806;2023-12-28T14:59:29;10.03;;;2.13;;
16579;SDS011;8402;51.466;6.806;2023-12-28T15:02:00;7.53;;;1.97;;
16579;SDS011;8402;51.466;6.806;2023-12-28T15:04:33;9.20;;;2.00;;
16579;SDS011;8402;51.466;6.806;2023-12-28T15:07:05;8.33;;;1.87;;
16579;SDS011;8402;51.466;6.806;2023-12-28T15:09:34;11.53;;;1.93;;
16579;SDS011;8402;51.466;6.806;2023-12-28T15:12:08;13.57;;;2.30;;
16579;SDS011;8402;51.466;6.806;2023-12-28T15:14:39;4.70;;;1.50;;
16579;SDS011;8402;51.466;6.806;2023-12-28T15:17:13;11.47;;;2.17;;
16579;SDS011;8402;51.466;6.806;2023-12-28T15:19:46;11.83;;;2.83;;
16579;SDS011;8402;51.466;6.806;2023-12-28T15:22:22;9.03;;;2.83;;
16579;SDS011;8402;51.466;6.806;2023-12-28T15:24:52;14.33;;;2.77;;